sensor_id;sensor_type;location;lat;lon;timestamp;pressure;altitude;pressure_sealevel;temperature;humidity
36190;BME280;22232;50.914;13.858;2023-04-03T00:01:17;98742.66;;;1.79;100.00
36190;BME280;22232;50.914;13.858;2023-04-03T00:03:44;98748.91;;;1.78;100.00
36190;BME280;22232;50.914;13.858;2023-04-03T00:06:12;98741.94;;;1.69;100.00
36190;BME280;22232;50.914;13.858;2023-04-03T00:08:40;98742.38;;;1.64;100.00
36190;BME280;22232;50.914;13.858;2023-04-03T00:11:08;98737.28;;;1.63;100.00
36190;BME280;22232;50.914;13.858;2023-04-03T00:13:37;98748.69;;;1.53;100.00
36190;BME280;22232;50.914;13.858;2023-04-03T00:16:07;98750.94;;;1.48;100.00
36190;BME280;22232;50.914;13.858;2023-04-03T00:18:35;98749.91;;;1.41;100.00
36190;BME280;22232;50.914;13.858;2023-04-03T00:21:03;98764.09;;;1.48;100.00
36190;BME280;22232;50.914;13.858;2023-04-03T00:23:31;98771.34;;;1.36;100.00
36190;BME280;22232;50.914;13.858;2023-04-03T00:25:59;98764.91;;;1.49;100.00
36190;BME280;22232;50.914;13.858;2023-04-03T00:28:27;98767.31;;;1.42;100.00
36190;BME280;22232;50.914;13.858;2023-04-03T00:30:54;98765.78;;;1.22;100.00
36190;BME280;22232;50.914;13.858;2023-04-03T00:33:22;98758.81;;;1.30;100.00
36190;BME280;22232;50.914;13.858;2023-04-03T00:35:50;98774.88;;;1.27;100.00
36190;BME280;22232;50.914;13.858;2023-04-03T00:38:18;98766.81;;;1.11;100.00
36190;BME280;22232;50.914;13.858;2023-04-03T00:40:48;98766.41;;;1.06;100.00
36190;BME280;22232;50.914;13.858;2023-04-03T00:43:22;98767.94;;;1.08;100.00
36190;BME280;22232;50.914;13.858;2023-04-03T00:45:54;98774.47;;;1.04;100.00
36190;BME280;22232;50.914;13.858;2023-04-03T00:48:28;98768.81;;;0.99;100.00
36190;BME280;22232;50.914;13.858;2023-04-03T00:50:57;98775.38;;;0.85;100.00
36190;BME280;22232;50.914;13.858;2023-04-03T00:53:35;98766.00;;;0.83;100.00
36190;BME280;22232;50.914;13.858;2023-04-03T00:56:11;98768.63;;;0.83;100.00
36190;BME280;22232;50.914;13.858;2023-04-03T00:58:46;98772.34;;;0.80;100.00
36190;BME280;22232;50.914;13.858;2023-04-03T01:01:20;98775.41;;;0.76;100.00
36190;BME280;22232;50.914;13.858;2023-04-03T01:03:49;98775.31;;;0.67;100.00
36190;BME280;22232;50.914;13.858;2023-04-03T01:06:21;98774.63;;;0.65;100.00
36190;BME280;22232;50.914;13.858;2023-04-03T01:08:52;98778.22;;;0.64;100.00
36190;BME280;22232;50.914;13.858;2023-04-03T01:11:20;98776.44;;;0.65;100.00
36190;BME280;22232;50.914;13.858;2023-04-03T01:13:49;98780.16;;;0.62;100.00
36190;BME280;22232;50.914;13.858;2023-04-03T01:16:16;98778.22;;;0.64;100.00
36190;BME280;22232;50.914;13.858;2023-04-03T01:18:45;98793.41;;;0.71;100.00
36190;BME280;22232;50.914;13.858;2023-04-03T01:24:35;98782.50;;;0.65;100.00
36190;BME280;22232;50.914;13.858;2023-04-03T01:27:07;98785.16;;;0.56;100.00
36190;BME280;22232;50.914;13.858;2023-04-03T01:29:37;98780.44;;;0.59;100.00
36190;BME280;22232;50.914;13.858;2023-04-03T01:32:05;98781.44;;;0.58;100.00
36190;BME280;22232;50.914;13.858;2023-04-03T01:34:32;98783.19;;;0.58;100.00
36190;BME280;22232;50.914;13.858;2023-04-03T01:37:00;98795.09;;;0.62;100.00
36190;BME280;22232;50.914;13.858;2023-04-03T01:39:28;98793.97;;;0.64;100.00
36190;BME280;22232;50.914;13.858;2023-04-03T01:41:56;98802.53;;;0.66;100.00
36190;BME280;22232;50.914;13.858;2023-04-03T01:44:29;98793.44;;;0.51;100.00
36190;BME280;22232;50.914;13.858;2023-04-03T01:46:57;98796.94;;;0.42;100.00
36190;BME280;22232;50.914;13.858;2023-04-03T01:49:27;98798.47;;;0.35;100.00
36190;BME280;22232;50.914;13.858;2023-04-03T01:51:55;98795.72;;;0.27;100.00
36190;BME280;22232;50.914;13.858;2023-04-03T01:54:23;98808.44;;;0.21;100.00
36190;BME280;22232;50.914;13.858;2023-04-03T01:56:51;98797.53;;;0.26;100.00
36190;BME280;22232;50.914;13.858;2023-04-03T01:59:20;98805.25;;;0.18;100.00
36190;BME280;22232;50.914;13.858;2023-04-03T02:01:48;98814.38;;;0.14;100.00
36190;BME280;22232;50.914;13.858;2023-04-03T02:04:15;98818.53;;;0.07;100.00
36190;BME280;22232;50.914;13.858;2023-04-03T02:06:43;98808.44;;;0.02;100.00
36190;BME280;22232;50.914;13.858;2023-04-03T02:09:10;98813.41;;;0.05;100.00
36190;BME280;22232;50.914;13.858;2023-04-03T02:11:38;98820.03;;;-0.10;100.00
36190;BME280;22232;50.914;13.858;2023-04-03T02:14:06;98818.25;;;-0.10;100.00
36190;BME280;22232;50.914;13.858;2023-04-03T02:16:33;98825.44;;;-0.12;100.00
36190;BME280;22232;50.914;13.858;2023-04-03T02:19:01;98822.41;;;-0.17;100.00
36190;BME280;22232;50.914;13.858;2023-04-03T02:21:30;98827.47;;;-0.25;100.00
36190;BME280;22232;50.914;13.858;2023-04-03T02:23:58;98826.38;;;-0.32;100.00
36190;BME280;22232;50.914;13.858;2023-04-03T02:26:26;98819.78;;;-0.36;100.00
36190;BME280;22232;50.914;13.858;2023-04-03T02:28:53;98823.06;;;-0.34;100.00
36190;BME280;22232;50.914;13.858;2023-04-03T02:31:21;98828.72;;;-0.39;100.00
36190;BME280;22232;50.914;13.858;2023-04-03T02:33:49;98830.81;;;-0.33;100.00
36190;BME280;22232;50.914;13.858;2023-04-03T02:36:17;98830.47;;;-0.49;100.00
36190;BME280;22232;50.914;13.858;2023-04-03T02:38:51;98849.69;;;-0.49;100.00
36190;BME280;22232;50.914;13.858;2023-04-03T02:41:18;98843.91;;;-0.42;100.00
36190;BME280;22232;50.914;13.858;2023-04-03T02:43:46;98843.72;;;-0.60;100.00
36190;BME280;22232;50.914;13.858;2023-04-03T02:46:15;98836.69;;;-0.60;100.00
36190;BME280;22232;50.914;13.858;2023-04-03T02:48:43;98860.81;;;-0.66;100.00
36190;BME280;22232;50.914;13.858;2023-04-03T02:51:11;98839.13;;;-0.68;100.00
36190;BME280;22232;50.914;13.858;2023-04-03T02:53:38;98849.50;;;-0.66;100.00
36190;BME280;22232;50.914;13.858;2023-04-03T02:56:12;98852.78;;;-0.74;100.00
36190;BME280;22232;50.914;13.858;2023-04-03T02:58:39;98848.03;;;-0.90;100.00
36190;BME280;22232;50.914;13.858;2023-04-03T03:01:08;98854.53;;;-0.84;100.00
36190;BME280;22232;50.914;13.858;2023-04-03T03:03:36;98858.50;;;-0.90;100.00
36190;BME280;22232;50.914;13.858;2023-04-03T03:06:10;98864.81;;;-1.02;100.00
36190;BME280;22232;50.914;13.858;2023-04-03T03:08:39;98860.66;;;-1.05;100.00
36190;BME280;22232;50.914;13.858;2023-04-03T03:11:07;98858.84;;;-1.04;100.00
36190;BME280;22232;50.914;13.858;2023-04-03T03:13:35;98859.81;;;-1.05;100.00
36190;BME280;22232;50.914;13.858;2023-04-03T03:16:03;98869.09;;;-1.22;100.00
36190;BME280;22232;50.914;13.858;2023-04-03T03:18:31;98876.00;;;-1.21;100.00
36190;BME280;22232;50.914;13.858;2023-04-03T03:21:00;98874.03;;;-1.29;100.00
36190;BME280;22232;50.914;13.858;2023-04-03T03:23:29;98874.47;;;-1.24;100.00
36190;BME280;22232;50.914;13.858;2023-04-03T03:26:15;98873.00;;;-1.38;100.00
36190;BME280;22232;50.914;13.858;2023-04-03T03:28:43;98869.88;;;-1.31;100.00
36190;BME280;22232;50.914;13.858;2023-04-03T03:31:11;98873.47;;;-1.32;100.00
36190;BME280;22232;50.914;13.858;2023-04-03T03:33:40;98873.72;;;-1.35;100.00
36190;BME280;22232;50.914;13.858;2023-04-03T03:36:08;98870.97;;;-1.34;100.00
36190;BME280;22232;50.914;13.858;2023-04-03T03:38:36;98879.66;;;-1.54;100.00
36190;BME280;22232;50.914;13.858;2023-04-03T03:41:04;98879.84;;;-1.46;100.00
36190;BME280;22232;50.914;13.858;2023-04-03T03:43:33;98879.34;;;-1.61;100.00
36190;BME280;22232;50.914;13.858;2023-04-03T03:46:03;98880.75;;;-1.57;100.00
36190;BME280;22232;50.914;13.858;2023-04-03T03:48:30;98888.69;;;-1.58;100.00
36190;BME280;22232;50.914;13.858;2023-04-03T03:50:58;98882.38;;;-1.56;100.00
36190;BME280;22232;50.914;13.858;2023-04-03T03:53:30;98880.84;;;-1.58;100.00
36190;BME280;22232;50.914;13.858;2023-04-03T03:56:03;98877.25;;;-1.67;100.00
36190;BME280;22232;50.914;13.858;2023-04-03T03:58:32;98875.13;;;-1.73;100.00
36190;BME280;22232;50.914;13.858;2023-04-03T04:01:01;98873.25;;;-1.62;100.00
36190;BME280;22232;50.914;13.858;2023-04-03T04:03:30;98882.97;;;-1.73;100.00
36190;BME280;22232;50.914;13.858;2023-04-03T04:05:58;98889.97;;;-1.74;100.00
36190;BME280;22232;50.914;13.858;2023-04-03T04:08:26;98889.78;;;-1.82;100.00
36190;BME280;22232;50.914;13.858;2023-04-03T04:10:53;98887.59;;;-1.77;100.00
36190;BME280;22232;50.914;13.858;2023-04-03T04:13:22;98883.97;;;-1.86;100.00
36190;BME280;22232;50.914;13.858;2023-04-03T04:15:50;98887.53;;;-1.87;100.00
36190;BME280;22232;50.914;13.858;2023-04-03T04:18:18;98886.00;;;-1.89;100.00
36190;BME280;22232;50.914;13.858;2023-04-03T04:20:48;98883.38;;;-1.89;100.00
36190;BME280;22232;50.914;13.858;2023-04-03T04:23:18;98892.91;;;-1.88;100.00
36190;BME280;22232;50.914;13.858;2023-04-03T04:25:48;98894.81;;;-1.90;100.00
36190;BME280;22232;50.914;13.858;2023-04-03T04:28:16;98904.31;;;-1.89;100.00
36190;BME280;22232;50.914;13.858;2023-04-03T04:30:46;98902.06;;;-1.94;100.00
36190;BME280;22232;50.914;13.858;2023-04-03T04:33:18;98907.31;;;-1.94;100.00
36190;BME280;22232;50.914;13.858;2023-04-03T04:35:47;98904.31;;;-1.89;100.00
36190;BME280;22232;50.914;13.858;2023-04-03T04:38:16;98910.88;;;-1.95;100.00
36190;BME280;22232;50.914;13.858;2023-04-03T04:40:44;98911.31;;;-1.90;100.00
36190;BME280;22232;50.914;13.858;2023-04-03T04:43:12;98913.00;;;-1.89;100.00
36190;BME280;22232;50.914;13.858;2023-04-03T04:45:43;98918.91;;;-1.87;100.00
36190;BME280;22232;50.914;13.858;2023-04-03T04:48:11;98922.59;;;-1.89;100.00
36190;BME280;22232;50.914;13.858;2023-04-03T04:50:39;98924.97;;;-1.86;100.00
36190;BME280;22232;50.914;13.858;2023-04-03T04:53:07;98921.78;;;-1.90;100.00
36190;BME280;22232;50.914;13.858;2023-04-03T04:55:35;98920.84;;;-1.89;100.00
36190;BME280;22232;50.914;13.858;2023-04-03T04:58:03;98939.72;;;-1.85;100.00
36190;BME280;22232;50.914;13.858;2023-04-03T05:00:31;98930.94;;;-1.95;100.00
36190;BME280;22232;50.914;13.858;2023-04-03T05:02:59;98928.69;;;-1.89;100.00
36190;BME280;22232;50.914;13.858;2023-04-03T05:05:26;98940.06;;;-1.78;100.00
36190;BME280;22232;50.914;13.858;2023-04-03T05:07:54;98938.75;;;-1.84;100.00
36190;BME280;22232;50.914;13.858;2023-04-03T05:10:22;98933.06;;;-1.89;100.00
36190;BME280;22232;50.914;13.858;2023-04-03T05:12:49;98940.56;;;-1.96;100.00
36190;BME280;22232;50.914;13.858;2023-04-03T05:15:17;98931.63;;;-1.82;100.00
36190;BME280;22232;50.914;13.858;2023-04-03T05:17:45;98940.47;;;-1.94;100.00
36190;BME280;22232;50.914;13.858;2023-04-03T05:20:14;98938.28;;;-1.89;100.00
36190;BME280;22232;50.914;13.858;2023-04-03T05:22:44;98951.16;;;-1.97;100.00
36190;BME280;22232;50.914;13.858;2023-04-03T05:25:13;98950.78;;;-1.93;100.00
36190;BME280;22232;50.914;13.858;2023-04-03T05:27:43;98947.94;;;-1.90;100.00
36190;BME280;22232;50.914;13.858;2023-04-03T05:30:12;98942.19;;;-1.83;100.00
36190;BME280;22232;50.914;13.858;2023-04-03T05:32:40;98947.25;;;-2.03;100.00
36190;BME280;22232;50.914;13.858;2023-04-03T05:35:16;98957.69;;;-1.92;100.00
36190;BME280;22232;50.914;13.858;2023-04-03T05:37:46;98946.59;;;-1.84;100.00
36190;BME280;22232;50.914;13.858;2023-04-03T05:40:16;98948.41;;;-1.96;100.00
36190;BME280;22232;50.914;13.858;2023-04-03T05:42:47;98953.97;;;-1.89;100.00
36190;BME280;22232;50.914;13.858;2023-04-03T05:45:16;98953.97;;;-1.89;100.00
36190;BME280;22232;50.914;13.858;2023-04-03T05:47:44;98953.94;;;-1.78;100.00
36190;BME280;22232;50.914;13.858;2023-04-03T05:50:12;98953.97;;;-1.89;100.00
36190;BME280;22232;50.914;13.858;2023-04-03T05:52:42;98954.13;;;-1.91;100.00
36190;BME280;22232;50.914;13.858;2023-04-03T05:55:11;98966.38;;;-1.91;100.00
36190;BME280;22232;50.914;13.858;2023-04-03T05:57:39;98959.94;;;-1.87;100.00
36190;BME280;22232;50.914;13.858;2023-04-03T06:00:08;98967.91;;;-1.89;100.00
36190;BME280;22232;50.914;13.858;2023-04-03T06:02:49;98966.31;;;-1.80;100.00
36190;BME280;22232;50.914;13.858;2023-04-03T06:05:21;98969.91;;;-1.92;100.00
36190;BME280;22232;50.914;13.858;2023-04-03T06:07:50;98970.13;;;-1.84;100.00
36190;BME280;22232;50.914;13.858;2023-04-03T06:10:18;98967.66;;;-1.86;100.00
36190;BME280;22232;50.914;13.858;2023-04-03T06:12:45;98967.28;;;-1.92;100.00
36190;BME280;22232;50.914;13.858;2023-04-03T06:15:13;98963.75;;;-1.91;100.00
36190;BME280;22232;50.914;13.858;2023-04-03T06:17:40;98981.19;;;-1.80;100.00
36190;BME280;22232;50.914;13.858;2023-04-03T06:20:09;98966.84;;;-1.97;100.00
36190;BME280;22232;50.914;13.858;2023-04-03T06:22:37;98978.22;;;-1.87;100.00
36190;BME280;22232;50.914;13.858;2023-04-03T06:25:05;98985.34;;;-1.89;100.00
36190;BME280;22232;50.914;13.858;2023-04-03T06:27:33;98971.94;;;-1.96;100.00
36190;BME280;22232;50.914;13.858;2023-04-03T06:30:01;98989.06;;;-1.92;100.00
36190;BME280;22232;50.914;13.858;2023-04-03T06:32:28;98974.91;;;-1.89;100.00
36190;BME280;22232;50.914;13.858;2023-04-03T06:34:56;98977.25;;;-1.86;100.00
36190;BME280;22232;50.914;13.858;2023-04-03T06:37:24;98976.91;;;-1.81;100.00
36190;BME280;22232;50.914;13.858;2023-04-03T06:39:59;98983.69;;;-1.79;100.00
36190;BME280;22232;50.914;13.858;2023-04-03T06:42:30;98984.88;;;-1.83;100.00
36190;BME280;22232;50.914;13.858;2023-04-03T06:45:06;98995.69;;;-1.76;100.00
36190;BME280;22232;50.914;13.858;2023-04-03T06:47:34;98988.09;;;-1.91;100.00
36190;BME280;22232;50.914;13.858;2023-04-03T06:50:02;98994.84;;;-1.77;100.00
36190;BME280;22232;50.914;13.858;2023-04-03T06:52:30;98994.34;;;-1.71;100.00
36190;BME280;22232;50.914;13.858;2023-04-03T06:54:57;98992.22;;;-1.77;100.00
36190;BME280;22232;50.914;13.858;2023-04-03T06:57:26;98999.38;;;-1.90;100.00
36190;BME280;22232;50.914;13.858;2023-04-03T06:59:54;99003.06;;;-1.81;100.00
36190;BME280;22232;50.914;13.858;2023-04-03T07:02:22;99006.97;;;-1.76;100.00
36190;BME280;22232;50.914;13.858;2023-04-03T07:04:49;99009.28;;;-1.62;100.00
36190;BME280;22232;50.914;13.858;2023-04-03T07:07:17;99007.53;;;-1.61;100.00
36190;BME280;22232;50.914;13.858;2023-04-03T07:09:45;99014.59;;;-1.84;100.00
36190;BME280;22232;50.914;13.858;2023-04-03T07:12:13;99004.53;;;-1.56;100.00
36190;BME280;22232;50.914;13.858;2023-04-03T07:14:42;99014.16;;;-1.57;100.00
36190;BME280;22232;50.914;13.858;2023-04-03T07:17:10;99007.97;;;-1.56;100.00
36190;BME280;22232;50.914;13.858;2023-04-03T07:19:37;99024.50;;;-1.55;100.00
36190;BME280;22232;50.914;13.858;2023-04-03T07:22:05;99025.34;;;-1.55;100.00
36190;BME280;22232;50.914;13.858;2023-04-03T07:24:33;99025.53;;;-1.47;100.00
36190;BME280;22232;50.914;13.858;2023-04-03T07:27:01;99027.81;;;-1.53;100.00
36190;BME280;22232;50.914;13.858;2023-04-03T07:29:29;99026.84;;;-1.52;100.00
36190;BME280;22232;50.914;13.858;2023-04-03T07:31:57;99028.47;;;-1.40;100.00
36190;BME280;22232;50.914;13.858;2023-04-03T07:34:25;99032.34;;;-1.55;100.00
36190;BME280;22232;50.914;13.858;2023-04-03T07:36:53;99033.56;;;-1.59;100.00
36190;BME280;22232;50.914;13.858;2023-04-03T07:39:20;99044.53;;;-1.77;100.00
36190;BME280;22232;50.914;13.858;2023-04-03T07:41:48;99040.09;;;-1.65;100.00
36190;BME280;22232;50.914;13.858;2023-04-03T07:44:16;99044.16;;;-1.61;100.00
36190;BME280;22232;50.914;13.858;2023-04-03T07:46:43;99045.31;;;-1.54;100.00
36190;BME280;22232;50.914;13.858;2023-04-03T07:49:11;99049.47;;;-1.51;100.00
36190;BME280;22232;50.914;13.858;2023-04-03T07:51:38;99051.88;;;-1.59;100.00
36190;BME280;22232;50.914;13.858;2023-04-03T07:54:06;99049.50;;;-1.63;100.00
36190;BME280;22232;50.914;13.858;2023-04-03T07:56:34;99052.00;;;-1.61;100.00
36190;BME280;22232;50.914;13.858;2023-04-03T07:59:02;99053.31;;;-1.34;100.00
36190;BME280;22232;50.914;13.858;2023-04-03T08:01:30;99050.47;;;-1.31;100.00
36190;BME280;22232;50.914;13.858;2023-04-03T08:03:59;99064.03;;;-1.38;100.00
36190;BME280;22232;50.914;13.858;2023-04-03T08:06:27;99050.16;;;-1.49;100.00
36190;BME280;22232;50.914;13.858;2023-04-03T08:09:14;99052.16;;;-1.42;100.00
36190;BME280;22232;50.914;13.858;2023-04-03T08:11:42;99051.09;;;-1.39;100.00
36190;BME280;22232;50.914;13.858;2023-04-03T08:14:12;99053.06;;;-1.31;100.00
36190;BME280;22232;50.914;13.858;2023-04-03T08:16:46;99054.25;;;-1.24;100.00
36190;BME280;22232;50.914;13.858;2023-04-03T08:19:14;99049.94;;;-1.14;100.00
36190;BME280;22232;50.914;13.858;2023-04-03T08:21:56;99060.47;;;-1.04;100.00
36190;BME280;22232;50.914;13.858;2023-04-03T08:24:25;99047.13;;;-1.01;100.00
36190;BME280;22232;50.914;13.858;2023-04-03T08:26:53;99052.81;;;-1.28;100.00
36190;BME280;22232;50.914;13.858;2023-04-03T08:29:21;99052.81;;;-1.28;100.00
36190;BME280;22232;50.914;13.858;2023-04-03T08:31:49;99059.91;;;-1.08;100.00
36190;BME280;22232;50.914;13.858;2023-04-03T08:34:17;99059.09;;;-0.87;100.00
36190;BME280;22232;50.914;13.858;2023-04-03T08:36:46;99056.59;;;-0.89;100.00
36190;BME280;22232;50.914;13.858;2023-04-03T08:39:14;99050.06;;;-0.53;100.00
36190;BME280;22232;50.914;13.858;2023-04-03T08:41:43;99052.47;;;-0.40;100.00
36190;BME280;22232;50.914;13.858;2023-04-03T08:49:35;99062.22;;;-0.52;100.00
36190;BME280;22232;50.914;13.858;2023-04-03T08:52:10;99064.09;;;-0.33;100.00
36190;BME280;22232;50.914;13.858;2023-04-03T08:54:48;99057.06;;;-0.32;100.00
36190;BME280;22232;50.914;13.858;2023-04-03T08:57:18;99056.34;;;-0.04;100.00
36190;BME280;22232;50.914;13.858;2023-04-03T08:59:48;99055.56;;;0.06;100.00
36190;BME280;22232;50.914;13.858;2023-04-03T09:02:25;99061.47;;;-0.02;100.00
36190;BME280;22232;50.914;13.858;2023-04-03T09:04:55;99058.06;;;0.07;100.00
36190;BME280;22232;50.914;13.858;2023-04-03T09:07:49;99070.69;;;-0.08;100.00
36190;BME280;22232;50.914;13.858;2023-04-03T09:10:28;99059.31;;;0.13;100.00
36190;BME280;22232;50.914;13.858;2023-04-03T09:13:06;99060.47;;;0.39;100.00
36190;BME280;22232;50.914;13.858;2023-04-03T09:15:38;99063.38;;;0.36;100.00
36190;BME280;22232;50.914;13.858;2023-04-03T09:18:16;99056.34;;;0.37;100.00
36190;BME280;22232;50.914;13.858;2023-04-03T09:23:46;99062.44;;;0.66;100.00
36190;BME280;22232;50.914;13.858;2023-04-03T09:29:23;99071.59;;;1.01;100.00
36190;BME280;22232;50.914;13.858;2023-04-03T09:32:00;99071.19;;;0.86;100.00
36190;BME280;22232;50.914;13.858;2023-04-03T09:34:35;99063.56;;;0.64;100.00
36190;BME280;22232;50.914;13.858;2023-04-03T09:37:04;99063.72;;;0.82;100.00
36190;BME280;22232;50.914;13.858;2023-04-03T09:39:51;99066.88;;;0.76;100.00
36190;BME280;22232;50.914;13.858;2023-04-03T09:42:22;99061.22;;;1.00;100.00
36190;BME280;22232;50.914;13.858;2023-04-03T09:44:59;99060.38;;;1.38;100.00
36190;BME280;22232;50.914;13.858;2023-04-03T09:47:30;99055.97;;;2.13;100.00
36190;BME280;22232;50.914;13.858;2023-04-03T09:52:42;99039.75;;;3.25;100.00
36190;BME280;22232;50.914;13.858;2023-04-03T09:55:18;99031.44;;;3.64;100.00
36190;BME280;22232;50.914;13.858;2023-04-03T09:57:47;99034.78;;;4.51;100.00
36190;BME280;22232;50.914;13.858;2023-04-03T10:00:22;99031.66;;;4.80;100.00
36190;BME280;22232;50.914;13.858;2023-04-03T10:02:54;99026.78;;;4.34;100.00
36190;BME280;22232;50.914;13.858;2023-04-03T10:05:33;99023.88;;;4.03;100.00
36190;BME280;22232;50.914;13.858;2023-04-03T10:10:46;99032.16;;;3.22;100.00
36190;BME280;22232;50.914;13.858;2023-04-03T10:13:20;99042.78;;;3.12;100.00
36190;BME280;22232;50.914;13.858;2023-04-03T10:16:00;99031.97;;;2.97;100.00
36190;BME280;22232;50.914;13.858;2023-04-03T10:18:50;99035.66;;;2.69;100.00
36190;BME280;22232;50.914;13.858;2023-04-03T10:21:48;99030.22;;;2.52;100.00
36190;BME280;22232;50.914;13.858;2023-04-03T10:29:43;99035.91;;;3.19;100.00
36190;BME280;22232;50.914;13.858;2023-04-03T10:38:43;99022.91;;;2.28;100.00
36190;BME280;22232;50.914;13.858;2023-04-03T10:44:02;99019.25;;;2.93;100.00
36190;BME280;22232;50.914;13.858;2023-04-03T10:46:40;99017.22;;;3.31;100.00
36190;BME280;22232;50.914;13.858;2023-04-03T10:58:03;99006.69;;;3.65;100.00
36190;BME280;22232;50.914;13.858;2023-04-03T11:03:15;99000.75;;;3.97;100.00
36190;BME280;22232;50.914;13.858;2023-04-03T11:05:52;99001.09;;;3.08;100.00
36190;BME280;22232;50.914;13.858;2023-04-03T11:08:28;99004.75;;;2.71;100.00
36190;BME280;22232;50.914;13.858;2023-04-03T11:11:06;98995.16;;;2.34;100.00
36190;BME280;22232;50.914;13.858;2023-04-03T11:13:38;98994.84;;;2.37;100.00
36190;BME280;22232;50.914;13.858;2023-04-03T11:16:08;98989.88;;;2.34;100.00
36190;BME280;22232;50.914;13.858;2023-04-03T11:24:16;98987.94;;;2.72;95.50
36190;BME280;22232;50.914;13.858;2023-04-03T11:26:44;98986.09;;;2.19;99.73
36190;BME280;22232;50.914;13.858;2023-04-03T11:29:15;98984.44;;;2.18;100.00
36190;BME280;22232;50.914;13.858;2023-04-03T11:32:15;98980.53;;;2.22;100.00
36190;BME280;22232;50.914;13.858;2023-04-03T11:34:52;98981.31;;;2.32;100.00
36190;BME280;22232;50.914;13.858;2023-04-03T11:37:34;98967.34;;;2.32;93.62
36190;BME280;22232;50.914;13.858;2023-04-03T11:43:36;98974.47;;;2.39;90.32
36190;BME280;22232;50.914;13.858;2023-04-03T11:45:40;98972.28;;;2.52;82.88
36190;BME280;22232;50.914;13.858;2023-04-03T11:50:51;98972.13;;;2.72;90.93
36190;BME280;22232;50.914;13.858;2023-04-03T11:53:26;98971.69;;;2.41;87.06
36190;BME280;22232;50.914;13.858;2023-04-03T11:56:00;98968.22;;;2.40;84.84
36190;BME280;22232;50.914;13.858;2023-04-03T11:58:34;98975.22;;;2.32;88.31
36190;BME280;22232;50.914;13.858;2023-04-03T12:01:10;98985.56;;;2.15;91.25
36190;BME280;22232;50.914;13.858;2023-04-03T12:08:46;98967.56;;;2.74;100.00
36190;BME280;22232;50.914;13.858;2023-04-03T12:11:22;98963.72;;;2.50;88.09
36190;BME280;22232;50.914;13.858;2023-04-03T12:16:30;98971.13;;;2.91;100.00
36190;BME280;22232;50.914;13.858;2023-04-03T12:19:02;98965.34;;;2.87;93.00
36190;BME280;22232;50.914;13.858;2023-04-03T12:26:43;98961.44;;;2.56;89.46
36190;BME280;22232;50.914;13.858;2023-04-03T12:29:25;98972.44;;;2.69;97.39
36190;BME280;22232;50.914;13.858;2023-04-03T12:46:53;98955.75;;;2.60;88.25
36190;BME280;22232;50.914;13.858;2023-04-03T12:49:39;98954.63;;;2.45;88.22
36190;BME280;22232;50.914;13.858;2023-04-03T12:54:48;98962.94;;;2.40;89.76
36190;BME280;22232;50.914;13.858;2023-04-03T12:57:19;98955.50;;;2.36;88.38
36190;BME280;22232;50.914;13.858;2023-04-03T12:59:48;98959.06;;;2.44;89.68
36190;BME280;22232;50.914;13.858;2023-04-03T13:02:24;98963.78;;;2.59;83.34
36190;BME280;22232;50.914;13.858;2023-04-03T13:04:54;98962.81;;;2.42;78.06
36190;BME280;22232;50.914;13.858;2023-04-03T13:07:38;98963.72;;;2.50;82.42
36190;BME280;22232;50.914;13.858;2023-04-03T13:15:29;98954.28;;;2.12;88.66
36190;BME280;22232;50.914;13.858;2023-04-03T13:17:57;98965.56;;;2.04;88.06
36190;BME280;22232;50.914;13.858;2023-04-03T13:20:30;98962.34;;;2.11;98.01
36190;BME280;22232;50.914;13.858;2023-04-03T13:23:02;98969.56;;;2.09;97.27
36190;BME280;22232;50.914;13.858;2023-04-03T13:25:33;98973.34;;;1.96;100.00
36190;BME280;22232;50.914;13.858;2023-04-03T13:28:04;98969.72;;;2.07;100.00
36190;BME280;22232;50.914;13.858;2023-04-03T13:31:37;98963.16;;;2.11;100.00
36190;BME280;22232;50.914;13.858;2023-04-03T13:33:38;98957.38;;;2.08;100.00
36190;BME280;22232;50.914;13.858;2023-04-03T13:36:28;98954.28;;;2.12;96.87
36190;BME280;22232;50.914;13.858;2023-04-03T13:41:45;98951.81;;;2.64;95.87
36190;BME280;22232;50.914;13.858;2023-04-03T13:46:56;98968.53;;;2.73;100.00
36190;BME280;22232;50.914;13.858;2023-04-03T13:49:45;98939.00;;;2.87;100.00
36190;BME280;22232;50.914;13.858;2023-04-03T13:52:29;98951.03;;;2.90;94.99
36190;BME280;22232;50.914;13.858;2023-04-03T13:55:01;98951.25;;;2.96;86.05
36190;BME280;22232;50.914;13.858;2023-04-03T13:57:33;98937.84;;;3.16;84.56
36190;BME280;22232;50.914;13.858;2023-04-03T14:00:47;98947.84;;;2.60;82.16
36190;BME280;22232;50.914;13.858;2023-04-03T14:05:55;98941.75;;;2.60;97.00
36190;BME280;22232;50.914;13.858;2023-04-03T14:08:23;98938.91;;;2.35;99.71
36190;BME280;22232;50.914;13.858;2023-04-03T14:11:13;98940.50;;;2.00;99.17
36190;BME280;22232;50.914;13.858;2023-04-03T14:13:41;98931.03;;;1.90;97.67
36190;BME280;22232;50.914;13.858;2023-04-03T14:16:13;98929.66;;;2.13;100.00
36190;BME280;22232;50.914;13.858;2023-04-03T14:18:44;98936.19;;;2.27;100.00
36190;BME280;22232;50.914;13.858;2023-04-03T14:21:14;98939.84;;;2.34;100.00
36190;BME280;22232;50.914;13.858;2023-04-03T14:23:42;98935.88;;;2.48;96.80
36190;BME280;22232;50.914;13.858;2023-04-03T14:26:16;98941.97;;;2.48;96.58
36190;BME280;22232;50.914;13.858;2023-04-03T14:28:46;98940.41;;;2.38;100.00
36190;BME280;22232;50.914;13.858;2023-04-03T14:31:15;98938.88;;;1.99;99.70
36190;BME280;22232;50.914;13.858;2023-04-03T14:33:43;98937.88;;;2.00;99.89
36190;BME280;22232;50.914;13.858;2023-04-03T14:36:16;98942.47;;;1.98;98.92
36190;BME280;22232;50.914;13.858;2023-04-03T14:38:44;98935.06;;;1.84;94.17
36190;BME280;22232;50.914;13.858;2023-04-03T14:41:14;98935.13;;;2.02;96.76
36190;BME280;22232;50.914;13.858;2023-04-03T14:43:44;98935.25;;;2.00;100.00
36190;BME280;22232;50.914;13.858;2023-04-03T14:46:22;98943.78;;;1.84;97.60